Terminal Aerodrome Forecast
Issued by NWS Amarillo, TX

Home | Current Version | Previous Version | Text Only | Print | Product List | Glossary On
Versions: 1 2 3 4 5 6 7 8 9 10 11 12 13 14 15 16 17 18 19 20
000
FTUS44 KAMA 191100
TAFGUY
TAF
KGUY 191140Z 1912/2012 17016KT P6SM SCT200
     FM191400 20020G28KT P6SM SCT060 BKN120
     FM192200 20020G28KT P6SM VCSH BKN060
     FM200100 19011KT P6SM SCT060=

USA.gov is the U.S. government's official web portal to all federal, state and local government web resources and services.